M I D A S
Marine Information and Data Acquisition System
Tripno 1448 of the Zeeleeuw from 2008-03-31 08:09:42 to 2008-03-31 13:50:21
Back to CruiseResearch ActivitiesStationsMapUnderway DataData graphs

EquipmentUnitsComment
TimeDGPSUTC
LatitudeDGPSDM.mWGS84
LongitudeDGPSDM.mWGS84
HeadingGyrodeg 
SOGDGPSknotsSpeed over ground
COGDGPSdegCourse over ground
DepthEcho soundermeters200 kHz
Missing or incorrect values are displayed as -999
Navigation data collected by the RV Zeeleeuw from 2008-03-31 08:05:06 to 2008-03-31 14:01:52
Time Latitude Longitude Heading SOG COG Depth
2008-03-31 08:06:11 51°13.674 2°55.928 114.6 3.1 299 -999
2008-03-31 08:07:11 51°13.698 2°55.825 100.3 3.9 285 -999
2008-03-31 08:08:11 51°13.707 2°55.748 86 2.3 278 -999
2008-03-31 08:09:11 51°13.714 2°55.722 59 0.9 16 14.1
2008-03-31 08:10:11 51°13.727 2°55.728 10.6 0.9 200 13.9
2008-03-31 08:11:11 51°13.72 2°55.719 345.4 1.5 342 -999
2008-03-31 08:12:10 51°13.759 2°55.691 334.5 3.9 333 12.4
2008-03-31 08:13:11 51°13.835 2°55.632 336.1 5.5 336 -999
2008-03-31 08:14:11 51°13.913 2°55.576 335.7 4.8 336 -999
2008-03-31 08:15:11 51°13.982 2°55.527 334.8 4.6 335 -999
2008-03-31 08:16:11 51°14.049 2°55.476 334.2 4.5 335 -999
2008-03-31 08:17:11 51°14.117 2°55.422 333 4.6 333 -999
2008-03-31 08:18:11 51°14.194 2°55.347 324.4 5.8 324 12.9
2008-03-31 08:19:10 51°14.264 2°55.247 314.4 5.7 314 12.1
2008-03-31 08:20:08 51°14.334 2°55.114 314.6 8.1 315 12.7
2008-03-31 08:21:07 51°14.471 2°54.986 342.6 11 344 12.1
2008-03-31 08:22:07 51°14.673 2°55.001 7.4 13 7 11.2
2008-03-31 08:23:07 51°14.881 2°54.968 335.6 12.5 333 10.7
2008-03-31 08:24:07 51°15.041 2°54.759 311.5 12.3 310 10.4
2008-03-31 08:25:08 51°15.139 2°54.469 293.7 12.4 295 10.2
2008-03-31 08:26:07 51°15.218 2°54.17 288.1 12.5 288 10.8
2008-03-31 08:27:08 51°15.288 2°53.851 289.2 12.5 290 11.3
2008-03-31 08:28:07 51°15.337 2°53.539 275.8 12.3 277 11.7
2008-03-31 08:29:08 51°15.36 2°53.211 275.3 12.3 277 12.4
2008-03-31 08:30:07 51°15.385 2°52.892 276.3 12.3 277 12.3
2008-03-31 08:31:07 51°15.411 2°52.568 276.9 12.3 278 12.9
2008-03-31 08:32:07 51°15.431 2°52.243 270.2 12.2 270 13.2
2008-03-31 08:33:07 51°15.434 2°51.918 271.3 12.3 273 13.6
2008-03-31 08:34:07 51°15.446 2°51.592 274.7 12.3 276 13.8
2008-03-31 08:35:07 51°15.461 2°51.267 272.1 12.2 273 14.1
2008-03-31 08:36:07 51°15.482 2°50.943 278.1 12.4 279 14.2
2008-03-31 08:37:07 51°15.508 2°50.619 275.9 12.3 277 14.3
2008-03-31 08:38:08 51°15.532 2°50.288 276.4 12.4 277 14.4
2008-03-31 08:39:08 51°15.56 2°49.962 278.3 12.4 279 14.6
2008-03-31 08:40:07 51°15.584 2°49.641 276.1 12.4 277 14.6
2008-03-31 08:41:08 51°15.609 2°49.31 276.1 12.4 277 13.4
2008-03-31 08:42:07 51°15.643 2°48.994 287.3 12.4 290 12.1
2008-03-31 08:43:08 51°15.754 2°48.706 303.9 12.7 304 12.7
2008-03-31 08:44:07 51°15.867 2°48.429 300.2 12.6 300 14.4
2008-03-31 08:45:08 51°15.943 2°48.116 283.9 12.4 283 16.4
2008-03-31 08:46:07 51°15.988 2°47.8 283 12.4 285 16.9
2008-03-31 08:47:07 51°16.027 2°47.476 277.9 12.4 279 17.6
2008-03-31 08:48:08 51°16.067 2°47.147 279.9 12.5 281 17.3
2008-03-31 08:49:07 51°16.103 2°46.829 278.2 12.3 280 15.6
2008-03-31 08:50:07 51°16.139 2°46.506 278.5 12.4 280 14.1
2008-03-31 08:51:07 51°16.179 2°46.184 280.8 12.4 282 12.4
2008-03-31 08:52:08 51°16.229 2°45.858 285.9 12.6 288 12
2008-03-31 08:53:07 51°16.296 2°45.548 289.9 12.6 292 11.9
2008-03-31 08:54:08 51°16.382 2°45.234 294 12.7 295 12.3
2008-03-31 08:55:08 51°16.486 2°44.939 298.1 12.8 299 12.3
2008-03-31 08:56:07 51°16.591 2°44.652 300.2 12.8 301 12.8
2008-03-31 08:57:08 51°16.709 2°44.362 301.8 12.8 303 15.9
2008-03-31 08:58:07 51°16.827 2°44.086 302.2 12.8 303 16.5
2008-03-31 08:59:07 51°16.943 2°43.802 301.5 12.8 303 16.5
2008-03-31 09:00:07 51°17.061 2°43.52 302.9 12.8 303 15.8
2008-03-31 09:01:08 51°17.18 2°43.233 304.2 12.7 305 13.9
2008-03-31 09:02:07 51°17.296 2°42.958 301.7 12.6 302 11.7
2008-03-31 09:03:08 51°17.413 2°42.671 302.2 12.8 304 14.7
2008-03-31 09:04:08 51°17.534 2°42.391 301.6 12.8 304 24.2
2008-03-31 09:05:07 51°17.654 2°42.117 302.2 12.8 305 25.3
2008-03-31 09:06:08 51°17.775 2°41.832 301.9 12.8 304 25.4
2008-03-31 09:07:07 51°17.892 2°41.555 303.7 12.9 305 24.8
2008-03-31 09:08:07 51°18.011 2°41.274 303.4 12.7 304 23.6
2008-03-31 09:09:07 51°18.13 2°40.994 303.3 12.7 305 17.2
2008-03-31 09:10:08 51°18.25 2°40.711 302.6 12.7 305 19.6
2008-03-31 09:11:07 51°18.367 2°40.441 300.9 12.6 304 17.9
2008-03-31 09:12:08 51°18.489 2°40.162 302.6 12.6 305 24.4
2008-03-31 09:13:07 51°18.605 2°39.89 302.1 12.6 305 26.4
2008-03-31 09:14:07 51°18.723 2°39.614 301.8 12.6 304 26
2008-03-31 09:15:08 51°18.844 2°39.332 301.8 12.7 304 26.6
2008-03-31 09:16:07 51°18.96 2°39.058 303 12.7 305 28.6
2008-03-31 09:17:07 51°19.077 2°38.78 301.6 12.6 304 29.1
2008-03-31 09:18:07 51°19.195 2°38.502 303.2 12.6 304 28
2008-03-31 09:19:08 51°19.318 2°38.224 306.2 12.6 312 24.5
2008-03-31 09:20:07 51°19.466 2°37.989 314 12.8 315 22.8
2008-03-31 09:21:08 51°19.649 2°37.807 330.2 12.9 331 23.4
2008-03-31 09:22:08 51°19.845 2°37.665 338.1 13 339 24.1
2008-03-31 09:23:07 51°20.019 2°37.484 320.7 12.8 323 23.2
2008-03-31 09:24:08 51°20.137 2°37.308 289 6.5 289 21.4
2008-03-31 09:25:07 51°20.133 2°37.196 246.7 3.6 253 23.7
2008-03-31 09:26:07 51°20.106 2°37.087 241.2 5.1 245 23.4
2008-03-31 09:27:07 51°20.083 2°36.964 259.4 4 263 24.6
2008-03-31 09:28:08 51°20.077 2°36.887 254.7 2.1 266 24.3
2008-03-31 09:29:08 51°20.082 2°36.863 287.1 0.4 8 23.5
2008-03-31 09:30:08 51°20.087 2°36.872 310.5 0.5 61 -999
2008-03-31 09:31:08 51°20.089 2°36.884 323.9 0.5 80 22.9
2008-03-31 09:32:08 51°20.089 2°36.897 329.4 0.5 83 22.4
2008-03-31 09:33:08 51°20.09 2°36.91 336.7 0.5 76 23.3
2008-03-31 09:34:07 51°20.093 2°36.92 341.8 0.5 61 22.2
2008-03-31 09:35:08 51°20.098 2°36.929 345.8 0.5 45 25.7
2008-03-31 09:36:08 51°20.104 2°36.937 350 0.5 29 25.7
2008-03-31 09:37:08 51°20.113 2°36.943 352 0.6 20 23
2008-03-31 09:38:08 51°20.131 2°36.942 335.6 2 342 23
2008-03-31 09:39:08 51°20.154 2°36.893 275.1 2.4 284 23.5
2008-03-31 09:40:08 51°20.146 2°36.836 231.2 2.1 236 23.6
2008-03-31 09:41:07 51°20.115 2°36.809 193.7 2.2 190 23.1
2008-03-31 09:42:08 51°20.083 2°36.818 164.3 1.8 157 23.8
2008-03-31 09:43:08 51°20.062 2°36.836 156.2 1.1 145 23.2
2008-03-31 09:44:08 51°20.053 2°36.854 142.9 0.7 119 23.9
2008-03-31 09:45:08 51°20.057 2°36.863 132.2 0.5 2 24.2
2008-03-31 09:46:08 51°20.065 2°36.867 120.5 0.5 21 24.1
2008-03-31 09:47:08 51°20.073 2°36.874 108.5 0.5 35 23.9
2008-03-31 09:48:07 51°20.081 2°36.884 96.2 0.8 40 23.7
2008-03-31 09:49:08 51°20.091 2°36.902 89.5 1 62 21.9
2008-03-31 09:50:07 51°20.099 2°36.923 95 0.8 57 24.5
2008-03-31 09:51:07 51°20.106 2°36.94 94.3 0.7 50 25.8
2008-03-31 09:52:08 51°20.114 2°36.954 93.1 0.7 47 22.7
2008-03-31 09:53:08 51°20.122 2°36.965 92.4 0.7 44 23.1
2008-03-31 09:54:08 51°20.129 2°36.976 91.7 0.6 40 22
2008-03-31 09:55:08 51°20.136 2°36.986 92.1 0.5 46 21.4
2008-03-31 09:56:08 51°20.143 2°36.994 91.6 0.5 35 22.1
2008-03-31 09:57:08 51°20.151 2°37.001 91.1 0.5 33 22.7
2008-03-31 09:58:08 51°20.158 2°37.008 90.7 0.5 26 22.7
2008-03-31 09:59:08 51°20.165 2°37.015 91.8 0.5 29 22.8
2008-03-31 10:00:08 51°20.173 2°37.021 93.7 0.5 27 23.2
2008-03-31 10:01:08 51°20.179 2°37.027 96.5 0.4 27 23.3
2008-03-31 10:02:08 51°20.186 2°37.031 97.9 0.4 23 22.7
2008-03-31 10:03:08 51°20.193 2°37.034 97.7 0.5 16 21
2008-03-31 10:04:08 51°20.201 2°37.038 96.9 0.5 16 22
2008-03-31 10:05:08 51°20.209 2°37.04 94 0.5 7 22.5
2008-03-31 10:06:07 51°20.216 2°37.041 88.5 0.5 9 22.7
2008-03-31 10:07:08 51°20.224 2°37.041 80.8 0.5 4 23.1
2008-03-31 10:08:08 51°20.232 2°37.042 72.5 0.5 358 23.2
2008-03-31 10:09:07 51°20.24 2°37.041 64.3 0.4 1 22.8
2008-03-31 10:10:08 51°20.248 2°37.041 57.3 0.5 359 22.7
2008-03-31 10:11:08 51°20.255 2°37.04 51.8 0.4 8 22.1
2008-03-31 10:12:08 51°20.263 2°37.038 45.7 0.5 356 21.9
2008-03-31 10:13:08 51°20.27 2°37.037 40.5 0.5 356 21.6
2008-03-31 10:14:08 51°20.277 2°37.035 37 0.4 353 22.2
2008-03-31 10:15:08 51°20.285 2°37.035 36.2 0.4 1 22.5
2008-03-31 10:16:08 51°20.292 2°37.034 36.9 0.4 359 22.8
2008-03-31 10:17:08 51°20.299 2°37.033 38.9 0.4 356 23
2008-03-31 10:18:08 51°20.306 2°37.032 41.5 0.4 356 23.1
2008-03-31 10:19:08 51°20.312 2°37.031 45 0.4 359 23.4
2008-03-31 10:20:08 51°20.32 2°37.03 47.6 0.3 15 23.6
2008-03-31 10:21:08 51°20.327 2°37.029 49.2 0.5 10 23.6
2008-03-31 10:22:08 51°20.329 2°37.09 114.8 3.5 117 22
2008-03-31 10:23:08 51°20.276 2°37.122 183.3 3.3 184 23.4
2008-03-31 10:24:08 51°20.226 2°37.098 203 2.7 205 23.2
2008-03-31 10:25:08 51°20.195 2°37.066 212.9 1.9 219 22.6
2008-03-31 10:26:08 51°20.182 2°37.045 232.4 0.2 279 21.6
2008-03-31 10:27:08 51°20.183 2°37.04 247.8 0.2 289 22.6
2008-03-31 10:28:08 51°20.186 2°37.034 257.5 0.2 303 22.5
2008-03-31 10:29:08 51°20.189 2°37.028 265.3 0.4 310 22.6
2008-03-31 10:30:08 51°20.193 2°37.022 272.1 0.3 310 22.8
2008-03-31 10:31:07 51°20.198 2°37.015 277.5 0.4 324 22.2
2008-03-31 10:32:08 51°20.204 2°37.008 282.9 0.4 329 21.2
2008-03-31 10:33:08 51°20.21 2°37.002 286.6 0.4 328 21.3
2008-03-31 10:34:08 51°20.215 2°36.995 288.9 0.5 324 21.5
2008-03-31 10:35:08 51°20.221 2°36.988 290.5 0.4 312 21.6
2008-03-31 10:36:08 51°20.228 2°36.983 293 0.4 321 21.9
2008-03-31 10:37:08 51°20.234 2°36.976 297 0.4 327 22.1
2008-03-31 10:38:08 51°20.24 2°36.97 299.8 0.5 331 22.4
2008-03-31 10:39:08 51°20.246 2°36.963 300.1 0.4 337 22.9
2008-03-31 10:40:08 51°20.252 2°36.958 303.2 0.4 326 22.8
2008-03-31 10:41:08 51°20.258 2°36.951 304.6 0.4 328 22.9
2008-03-31 10:42:08 51°20.265 2°36.945 306.2 0.4 324 23.1
2008-03-31 10:43:08 51°20.271 2°36.939 306.3 0.4 327 23.3
2008-03-31 10:44:08 51°20.277 2°36.933 305.8 0.4 327 23.5
2008-03-31 10:45:08 51°20.282 2°36.926 305.9 0.4 316 23.3
2008-03-31 10:46:08 51°20.287 2°36.92 305.6 0.4 318 23.5
2008-03-31 10:47:07 51°20.292 2°36.912 301.5 0.9 305 23.3
2008-03-31 10:48:08 51°20.295 2°36.863 250 2.3 251 22.6
2008-03-31 10:49:08 51°20.263 2°36.819 197.9 3 202 23.4
2008-03-31 10:50:08 51°20.226 2°36.803 185.1 1.9 191 22.5
2008-03-31 10:51:08 51°20.2 2°36.797 178.4 1.4 188 22.8
2008-03-31 10:52:08 51°20.18 2°36.795 172.5 1 185 23.4
2008-03-31 10:53:08 51°20.166 2°36.793 170.7 0.8 178 23.3
2008-03-31 10:54:08 51°20.155 2°36.789 174.1 0.6 190 23.2
2008-03-31 10:55:08 51°20.146 2°36.786 178.8 0.5 204 23.2
2008-03-31 10:56:08 51°20.139 2°36.782 186.2 0.5 201 22.8
2008-03-31 10:57:08 51°20.133 2°36.776 194 0.4 221 22.3
2008-03-31 10:58:08 51°20.128 2°36.77 199.1 0.3 231 22.2
2008-03-31 10:59:08 51°20.125 2°36.763 205.5 0.3 226 21.6
2008-03-31 11:00:08 51°20.124 2°36.756 212 0.3 266 21.2
2008-03-31 11:01:08 51°20.123 2°36.748 219 0.3 262 22.1
2008-03-31 11:02:08 51°20.123 2°36.741 225.7 0.3 276 22.4
2008-03-31 11:03:08 51°20.123 2°36.733 231.2 0.3 288 22.7
2008-03-31 11:04:08 51°20.124 2°36.727 235.5 0.3 287 22.6
2008-03-31 11:05:08 51°20.126 2°36.72 239.9 0.2 289 22.8
2008-03-31 11:06:08 51°20.128 2°36.712 244.7 0.3 291 22.7
2008-03-31 11:07:08 51°20.13 2°36.705 250.2 0.3 296 22.5
2008-03-31 11:08:08 51°20.133 2°36.698 255.9 0.3 300 22.7
2008-03-31 11:09:08 51°20.136 2°36.691 263.5 0.4 306 22.5
2008-03-31 11:10:08 51°20.139 2°36.684 272.1 0.3 306 22.4
2008-03-31 11:11:08 51°20.142 2°36.677 281.6 0.3 311 22.7
2008-03-31 11:12:08 51°20.145 2°36.67 291.2 0.3 319 22.5
2008-03-31 11:13:08 51°20.148 2°36.663 301.1 0.3 290 22.9
2008-03-31 11:14:08 51°20.15 2°36.657 311.6 0.3 291 22.6
2008-03-31 11:15:08 51°20.153 2°36.652 322.5 0.2 308 22.7
2008-03-31 11:16:08 51°20.155 2°36.646 335.1 0.2 290 22.9
2008-03-31 11:17:08 51°20.156 2°36.641 347.6 0.3 286 22.9
2008-03-31 11:18:08 51°20.176 2°36.633 354.8 2.3 350 22.7
2008-03-31 11:19:08 51°20.226 2°36.616 354.1 2.9 347 21.4
2008-03-31 11:20:08 51°20.265 2°36.603 355.2 2.1 345 21.9
2008-03-31 11:21:08 51°20.294 2°36.591 351.9 1.6 343 22
2008-03-31 11:22:08 51°20.315 2°36.577 345.3 1.3 336 21.9
2008-03-31 11:23:08 51°20.333 2°36.562 339.6 1.3 332 21.6
2008-03-31 11:24:08 51°20.363 2°36.556 19.5 2.5 16 21
2008-03-31 11:25:08 51°20.385 2°36.616 89.1 2.9 92 21.2
2008-03-31 11:26:08 51°20.349 2°36.672 157.9 3.5 162 21.2
2008-03-31 11:27:08 51°20.245 2°36.706 163 8.7 166 22.4
2008-03-31 11:28:08 51°20.129 2°36.777 144.3 4.7 150 22.3
2008-03-31 11:29:08 51°20.091 2°36.825 119.4 1.9 128 23.2
2008-03-31 11:30:08 51°20.079 2°36.851 122.4 0.7 134 22.8
2008-03-31 11:31:08 51°20.072 2°36.856 129.8 0.3 162 22.7
2008-03-31 11:32:08 51°20.068 2°36.857 137.9 0.3 171 23
2008-03-31 11:33:08 51°20.063 2°36.856 146.8 0.3 184 22.9
2008-03-31 11:34:08 51°20.055 2°36.858 145.1 1.2 153 22.9
2008-03-31 11:35:08 51°20.043 2°36.902 85 2.3 85 23.4
2008-03-31 11:36:08 51°20.071 2°36.957 37.6 3 31 23.9
2008-03-31 11:37:08 51°20.11 2°36.965 1.7 1.9 353 21.9
2008-03-31 11:38:08 51°20.127 2°36.954 340.6 0.4 304 22
2008-03-31 11:39:08 51°20.127 2°36.946 333.3 0.2 250 22.4
2008-03-31 11:40:08 51°20.123 2°36.941 333.2 0.3 204 21.7
2008-03-31 11:41:08 51°20.119 2°36.939 336.6 0.3 213 22.2
2008-03-31 11:42:08 51°20.114 2°36.932 341 0.4 215 22.5
2008-03-31 11:43:08 51°20.109 2°36.926 345.3 0.4 224 22.8
2008-03-31 11:44:08 51°20.105 2°36.92 348.8 0.4 224 23.2
2008-03-31 11:45:08 51°20.1 2°36.915 352.6 0.4 218 22.5
2008-03-31 11:46:08 51°20.093 2°36.908 356.3 0.5 214 20.7
2008-03-31 11:47:08 51°20.089 2°36.901 0.3 0.4 243 21.8
2008-03-31 11:48:08 51°20.087 2°36.892 3.2 0.4 251 21.8
2008-03-31 11:49:08 51°20.085 2°36.882 4.9 0.3 252 22.5
2008-03-31 11:50:08 51°20.083 2°36.873 7.4 0.4 250 22.6
2008-03-31 11:51:08 51°20.091 2°36.863 350.1 1 325 21.6
2008-03-31 11:52:08 51°20.111 2°36.848 358.5 1.5 346 21.8
2008-03-31 11:53:08 51°20.134 2°36.851 32.6 1.4 20 22.6
2008-03-31 11:54:08 51°20.15 2°36.877 70.6 1.5 64 22.7
2008-03-31 11:55:08 51°20.15 2°36.911 99.8 1.2 106 22.1
2008-03-31 11:56:08 51°20.144 2°36.93 109.8 0.5 125 22.3
2008-03-31 11:57:08 51°20.139 2°36.936 107.3 0.3 157 22.3
2008-03-31 11:58:08 51°20.136 2°36.936 112.5 0.2 216 21.9
2008-03-31 11:59:08 51°20.133 2°36.932 119.8 0.2 234 22.3
2008-03-31 12:00:08 51°20.13 2°36.928 124.8 0.3 209 22.1
2008-03-31 12:01:08 51°20.127 2°36.924 132.3 0.3 203 22
2008-03-31 12:02:08 51°20.121 2°36.92 140.1 0.4 216 22
2008-03-31 12:03:08 51°20.116 2°36.915 144.6 0.4 209 22.4
2008-03-31 12:04:08 51°20.11 2°36.91 149 0.4 211 22.2
2008-03-31 12:05:08 51°20.104 2°36.904 152.9 0.5 209 21.6
2008-03-31 12:06:08 51°20.097 2°36.897 157.9 0.5 221 20.1
2008-03-31 12:07:08 51°20.092 2°36.889 164.1 0.5 231 21.4
2008-03-31 12:08:08 51°20.087 2°36.879 169.4 0.5 233 22.3
2008-03-31 12:09:08 51°20.082 2°36.87 173.6 0.5 238 22.5
2008-03-31 12:10:08 51°20.079 2°36.86 177.5 0.4 278 22.2
2008-03-31 12:11:08 51°20.082 2°36.85 178 0.4 301 22.3
2008-03-31 12:12:08 51°20.086 2°36.84 174.8 0.5 288 22.6
2008-03-31 12:13:08 51°20.088 2°36.829 171.4 0.4 290 22.8
2008-03-31 12:14:08 51°20.09 2°36.817 168.7 0.4 284 22.8
2008-03-31 12:15:08 51°20.088 2°36.806 162.2 0.6 202 22.5
2008-03-31 12:16:08 51°20.058 2°36.819 151.3 2.8 162 21.8
2008-03-31 12:17:08 51°20.007 2°36.858 143.6 3.9 152 21.7
2008-03-31 12:18:08 51°19.917 2°36.942 144 7.5 148 21.7
2008-03-31 12:19:08 51°19.808 2°37.06 141.3 8.1 146 21.4
2008-03-31 12:20:08 51°19.691 2°37.184 141.7 8.8 146 20.7
2008-03-31 12:21:08 51°19.561 2°37.317 141.2 9.7 145 21.5
2008-03-31 12:22:08 51°19.425 2°37.467 140.9 10 146 20.9
2008-03-31 12:23:07 51°19.291 2°37.615 140.9 10 146 19.5
2008-03-31 12:24:08 51°19.151 2°37.769 140.5 10 145 19.3
2008-03-31 12:25:08 51°19.013 2°37.918 141.2 10.1 145 22.7
2008-03-31 12:26:08 51°18.873 2°38.068 141.6 10.1 146 24.7
2008-03-31 12:27:08 51°18.734 2°38.22 141.3 10.2 146 26.6
2008-03-31 12:28:08 51°18.595 2°38.373 141.1 10.1 146 26.3
2008-03-31 12:29:08 51°18.457 2°38.525 141.5 10.1 146 26.4
2008-03-31 12:30:08 51°18.318 2°38.677 141.7 10.1 145 26.8
2008-03-31 12:31:08 51°18.182 2°38.832 141.4 10 145 26.2
2008-03-31 12:32:08 51°18.045 2°38.987 141.4 10.1 145 26.6
2008-03-31 12:33:08 51°17.896 2°39.106 158.8 10.2 163 26.9
2008-03-31 12:34:08 51°17.733 2°39.184 159.1 10.1 163 25.3
2008-03-31 12:35:08 51°17.572 2°39.259 159.2 10 163 20.6
2008-03-31 12:36:08 51°17.414 2°39.337 158.7 9.9 163 16.3
2008-03-31 12:37:08 51°17.258 2°39.413 158.8 9.8 164 10.5
2008-03-31 12:38:08 51°17.102 2°39.491 157.9 9.8 163 12.4
2008-03-31 12:39:08 51°16.943 2°39.565 158.9 10 163 13.2
2008-03-31 12:40:08 51°16.786 2°39.647 157.9 10 162 16.6
2008-03-31 12:41:08 51°16.627 2°39.731 159 10 162 18.2
2008-03-31 12:42:08 51°16.474 2°39.812 158.8 9.4 162 20.2
2008-03-31 12:43:08 51°16.326 2°39.889 158.7 9.3 162 20.6
2008-03-31 12:44:08 51°16.178 2°39.968 158.1 9.4 161 20.7
2008-03-31 12:45:08 51°16.029 2°40.045 159.1 9.4 163 20.4
2008-03-31 12:46:08 51°15.88 2°40.123 158.1 9.4 162 19.5
2008-03-31 12:47:08 51°15.731 2°40.2 158.2 9.4 162 18.2
2008-03-31 12:48:08 51°15.584 2°40.28 158 9.4 161 16.5
2008-03-31 12:49:08 51°15.436 2°40.358 158.2 9.2 161 14.6
2008-03-31 12:50:08 51°15.297 2°40.456 149 9.1 151 13.1
2008-03-31 12:51:08 51°15.168 2°40.579 145.4 9.1 149 11.7
2008-03-31 12:52:08 51°15.041 2°40.706 138.6 9 142 12
2008-03-31 12:53:08 51°14.929 2°40.863 135.7 9 138 12.1
2008-03-31 12:54:08 51°14.816 2°41.019 135.7 8.9 140 12.7
2008-03-31 12:55:08 51°14.713 2°41.186 124 8.8 127 13.1
2008-03-31 12:56:08 51°14.634 2°41.381 112.3 8.6 114 13.6
2008-03-31 12:57:08 51°14.588 2°41.6 106 8.8 108 13.7
2008-03-31 12:58:08 51°14.538 2°41.82 106.8 8.8 109 13.7
2008-03-31 12:59:08 51°14.52 2°42.046 85.6 8.6 86 14.6
2008-03-31 13:00:08 51°14.533 2°42.275 84.8 8.7 85 16.3
2008-03-31 13:01:08 51°14.544 2°42.505 84.5 8.7 85 16.9
2008-03-31 13:02:08 51°14.553 2°42.736 85.4 8.8 87 17.6
2008-03-31 13:03:08 51°14.561 2°42.967 85.4 8.7 87 17.6
2008-03-31 13:04:08 51°14.567 2°43.198 85.9 8.7 87 17.5
2008-03-31 13:05:08 51°14.573 2°43.427 85.8 8.7 87 17.1
2008-03-31 13:06:08 51°14.578 2°43.658 85.9 8.7 88 16.6
2008-03-31 13:07:08 51°14.585 2°43.887 85.5 8.7 87 16.1
2008-03-31 13:08:08 51°14.591 2°44.117 86.2 8.7 87 15.8
2008-03-31 13:09:08 51°14.597 2°44.347 86.2 8.7 88 14.9
2008-03-31 13:10:08 51°14.604 2°44.577 86 8.7 87 14.1
2008-03-31 13:11:08 51°14.609 2°44.806 85.9 8.7 88 13.1
2008-03-31 13:12:08 51°14.615 2°45.035 85.9 8.6 87 11.7
2008-03-31 13:13:08 51°14.62 2°45.265 86.1 8.7 88 10.7
2008-03-31 13:14:08 51°14.625 2°45.494 85.6 8.7 87 9.5
2008-03-31 13:15:08 51°14.631 2°45.724 86.9 8.6 89 8.5
2008-03-31 13:16:08 51°14.636 2°45.954 85.7 8.7 87 8.5
2008-03-31 13:17:08 51°14.641 2°46.185 87 8.7 89 9.7
2008-03-31 13:18:08 51°14.646 2°46.417 86.6 8.7 88 11.2
2008-03-31 13:19:08 51°14.65 2°46.647 86.3 8.7 88 12.5
2008-03-31 13:20:08 51°14.656 2°46.889 86.3 9.4 88 12.8
2008-03-31 13:21:08 51°14.663 2°47.139 86 9.5 88 12.7
2008-03-31 13:22:08 51°14.669 2°47.39 86.3 9.5 88 12.1
2008-03-31 13:23:08 51°14.673 2°47.641 86.9 9.4 89 11.4
2008-03-31 13:24:08 51°14.679 2°47.892 85.7 9.5 87 10.9
2008-03-31 13:25:08 51°14.685 2°48.145 86.4 9.5 88 11.4
2008-03-31 13:26:08 51°14.69 2°48.4 86 9.5 88 11.8
2008-03-31 13:27:08 51°14.696 2°48.654 86.1 9.6 88 12.1
2008-03-31 13:28:08 51°14.7 2°48.908 87.6 9.6 89 12.2
2008-03-31 13:29:08 51°14.704 2°49.163 85.9 9.6 89 12.2
2008-03-31 13:30:08 51°14.709 2°49.419 86.2 9.6 89 12.2
2008-03-31 13:31:08 51°14.714 2°49.672 86.4 9.6 88 12.1
2008-03-31 13:32:08 51°14.719 2°49.926 86.7 9.6 88 11.9
2008-03-31 13:33:08 51°14.722 2°50.179 86.9 9.5 89 11.9
2008-03-31 13:34:08 51°14.728 2°50.431 86.1 9.5 88 11.6
2008-03-31 13:35:08 51°14.733 2°50.688 86.2 10 88 11.4
2008-03-31 13:36:08 51°14.736 2°50.959 86 10.2 88 11
2008-03-31 13:37:08 51°14.744 2°51.232 85.6 10.3 88 10.7
2008-03-31 13:38:08 51°14.751 2°51.505 85.7 10.3 87 10.3
2008-03-31 13:39:08 51°14.758 2°51.779 86 10.5 88 10.1
2008-03-31 13:40:08 51°14.766 2°52.059 85.4 10.6 88 9.9
2008-03-31 13:41:08 51°14.771 2°52.341 86.7 10.7 88 9.6
2008-03-31 13:42:08 51°14.78 2°52.624 85.7 10.7 87 9.5
2008-03-31 13:43:08 51°14.786 2°52.917 87.1 11.2 88 9.3
2008-03-31 13:44:08 51°14.796 2°53.217 86.5 11.5 89 9.8
2008-03-31 13:45:08 51°14.771 2°53.519 100.8 11.5 102 9.9
2008-03-31 13:46:08 51°14.727 2°53.816 104.3 11.5 106 10
2008-03-31 13:47:08 51°14.656 2°54.101 109.6 11.5 110 10.8
2008-03-31 13:48:08 51°14.59 2°54.388 108.6 11.7 111 10.4
2008-03-31 13:49:08 51°14.502 2°54.667 115 11.8 117 10.2
2008-03-31 13:50:08 51°14.397 2°54.943 121.4 12.3 122 10.1
2008-03-31 13:51:08 51°14.281 2°55.21 126.5 11.7 128 10.1
2008-03-31 13:52:11 51°14.138 2°55.404 147.1 10 149 -999
2008-03-31 13:53:11 51°14.009 2°55.501 155.2 8.1 155 -999
2008-03-31 13:54:12 51°13.889 2°55.587 155.7 7.7 156 -999
2008-03-31 13:55:12 51°13.791 2°55.67 145.4 5 146 9.9
2008-03-31 13:56:12 51°13.743 2°55.734 132.6 3.1 134 -999
2008-03-31 13:57:12 51°13.711 2°55.798 128.8 3.2 127 -999
2008-03-31 13:58:12 51°13.678 2°55.872 120.2 3.6 119 -999
2008-03-31 13:59:12 51°13.656 2°55.949 110.6 2.6 108 -999
2008-03-31 14:00:12 51°13.65 2°55.982 113.5 0.1 123 -999
2008-03-31 14:01:12 51°13.649 2°55.981 121.7 0.1 74 -999